Time;durP1;ratioP1;P1;durP2;ratioP2;P2;SDS_P1;SDS_P2;PMS_P1;PMS_P2;Temp;Humidity;BMP_temperature;BMP_pressure;BME280_temperature;BME280_humidity;BME280_pressure;Samples;Min_cycle;Max_cycle;Signal;HPM_P1;HPM_P2
2021/05/07 00:01:14;;;;;;;;;;;3.10;99.90;;;;;;5083284;28;19920;-58
2021/05/07 00:03:40;;;;;;;;;;;3.20;99.90;;;;;;5078363;28;19921;-58
2021/05/07 00:06:09;;;;;;;;;;;3.20;99.90;;;;;;5085015;28;19935;-59
2021/05/07 00:08:36;;;;;;;;;;;3.20;99.90;;;;;;5077282;28;19932;-59
2021/05/07 00:11:03;;;;;;;;;;;3.20;99.90;;;;;;5082320;28;20170;-59
2021/05/07 00:13:28;;;;;;;;;;;3.30;99.90;;;;;;5076004;28;20379;-59
2021/05/07 00:15:54;;;;;;;;;;;3.20;99.90;;;;;;5083744;28;19920;-59
2021/05/07 00:18:20;;;;;;;;;;;3.20;99.90;;;;;;5076150;28;19928;-59
2021/05/07 00:20:45;;;;;;;;;;;3.20;99.90;;;;;;5082111;28;19920;-59
2021/05/07 00:23:11;;;;;;;;;;;3.20;99.90;;;;;;5075135;28;20315;-59
2021/05/07 00:25:37;;;;;;;;;;;3.20;99.90;;;;;;5083599;28;19963;-59
2021/05/07 00:28:03;;;;;;;;;;;3.30;99.90;;;;;;5080317;28;19920;-59
2021/05/07 00:30:28;;;;;;;;;;;3.30;99.90;;;;;;5086149;28;20027;-59
2021/05/07 00:32:54;;;;;;;;;;;3.30;99.90;;;;;;5082056;28;19928;-59
2021/05/07 00:35:19;;;;;;;;;;;3.30;99.90;;;;;;5086043;28;19928;-59
2021/05/07 00:37:45;;;;;;;;;;;3.30;99.90;;;;;;5088160;28;19924;-59
2021/05/07 00:40:11;;;;;;;;;;;3.30;99.90;;;;;;5080238;28;19926;-58
2021/05/07 00:42:37;;;;;;;;;;;3.40;99.90;;;;;;5086191;28;19931;-59
2021/05/07 00:45:03;;;;;;;;;;;3.30;99.90;;;;;;5081408;28;19972;-59
2021/05/07 00:47:29;;;;;;;;;;;3.40;99.90;;;;;;5084689;28;20360;-59
2021/05/07 00:49:54;;;;;;;;;;;3.40;99.90;;;;;;5078688;28;20026;-59
2021/05/07 00:52:20;;;;;;;;;;;3.40;99.90;;;;;;5087316;28;19924;-59
2021/05/07 00:54:46;;;;;;;;;;;3.40;99.90;;;;;;5079837;28;19942;-59
2021/05/07 00:57:12;;;;;;;;;;;3.30;99.90;;;;;;5087552;28;19928;-59
2021/05/07 00:59:38;;;;;;;;;;;3.30;99.90;;;;;;5081755;28;19920;-59
2021/05/07 01:02:03;;;;;;;;;;;3.20;99.90;;;;;;5083958;28;19920;-58
2021/05/07 01:04:29;;;;;;;;;;;3.10;99.90;;;;;;5081712;28;20054;-59
2021/05/07 01:06:55;;;;;;;;;;;3.10;99.90;;;;;;5077951;28;20045;-58
2021/05/07 01:09:20;;;;;;;;;;;2.90;99.90;;;;;;5078024;28;20399;-59
2021/05/07 01:11:46;;;;;;;;;;;2.90;99.90;;;;;;5084536;28;19923;-59
2021/05/07 01:14:12;;;;;;;;;;;2.80;99.90;;;;;;5084282;28;19924;-59
2021/05/07 01:16:38;;;;;;;;;;;2.70;99.90;;;;;;5081381;28;19924;-59
2021/05/07 01:19:04;;;;;;;;;;;2.80;99.90;;;;;;5082955;28;20241;-58
2021/05/07 01:21:31;;;;;;;;;;;2.70;99.90;;;;;;5079487;28;20345;-59
2021/05/07 01:23:57;;;;;;;;;;;2.70;99.90;;;;;;5087944;28;19927;-59
2021/05/07 01:26:22;;;;;;;;;;;2.60;99.90;;;;;;5077318;28;20287;-59
2021/05/07 01:28:48;;;;;;;;;;;2.50;99.90;;;;;;5083811;28;19992;-59
2021/05/07 01:31:14;;;;;;;;;;;2.50;99.90;;;;;;5083220;28;19920;-59
2021/05/07 01:33:40;;;;;;;;;;;2.40;99.90;;;;;;5086585;28;20364;-59
2021/05/07 01:36:06;;;;;;;;;;;2.40;99.90;;;;;;5078530;28;19920;-59
2021/05/07 01:38:32;;;;;;;;;;;2.40;99.90;;;;;;5086539;28;20465;-58
2021/05/07 01:40:57;;;;;;;;;;;2.40;99.90;;;;;;5077305;28;20027;-58
2021/05/07 01:43:23;;;;;;;;;;;2.30;99.90;;;;;;5086869;28;20303;-57
2021/05/07 01:45:49;;;;;;;;;;;2.30;99.90;;;;;;5081037;28;19924;-58
2021/05/07 01:48:15;;;;;;;;;;;2.30;99.90;;;;;;5084001;28;20331;-58
2021/05/07 01:50:44;;;;;;;;;;;2.20;99.90;;;;;;5087824;28;20030;-58
2021/05/07 01:53:11;;;;;;;;;;;2.20;99.90;;;;;;5079332;28;20014;-58
2021/05/07 01:55:38;;;;;;;;;;;2.20;99.90;;;;;;5080167;28;20016;-58
2021/05/07 01:58:04;;;;;;;;;;;2.20;99.90;;;;;;5081146;28;19928;-58
2021/05/07 02:00:30;;;;;;;;;;;2.20;99.90;;;;;;5081006;28;19920;-58
2021/05/07 02:02:57;;;;;;;;;;;2.20;99.90;;;;;;5079634;28;19931;-58
2021/05/07 02:05:25;;;;;;;;;;;2.10;99.90;;;;;;5086018;28;20027;-58
2021/05/07 02:07:50;;;;;;;;;;;2.10;99.90;;;;;;5079818;28;20143;-59
2021/05/07 02:10:17;;;;;;;;;;;2.10;99.90;;;;;;5082268;28;19943;-59
2021/05/07 02:12:43;;;;;;;;;;;2.10;99.90;;;;;;5077540;28;19920;-59
2021/05/07 02:15:12;;;;;;;;;;;2.10;99.90;;;;;;5087283;28;19927;-59
2021/05/07 02:17:38;;;;;;;;;;;2.00;99.90;;;;;;5079642;28;19997;-59
2021/05/07 02:20:05;;;;;;;;;;;2.00;99.90;;;;;;5085220;28;19920;-59
2021/05/07 02:22:30;;;;;;;;;;;2.00;99.90;;;;;;5078112;28;19928;-59
2021/05/07 02:24:56;;;;;;;;;;;2.00;99.90;;;;;;5084276;28;19924;-59
2021/05/07 02:27:22;;;;;;;;;;;2.00;99.90;;;;;;5082764;28;20015;-59
2021/05/07 02:29:47;;;;;;;;;;;1.90;99.90;;;;;;5083586;28;20367;-59
2021/05/07 02:32:13;;;;;;;;;;;1.90;99.90;;;;;;5083179;28;20362;-59
2021/05/07 02:34:39;;;;;;;;;;;1.90;99.90;;;;;;5079751;28;19975;-57
2021/05/07 02:37:05;;;;;;;;;;;1.80;99.90;;;;;;5085957;28;19920;-59
2021/05/07 02:39:30;;;;;;;;;;;1.90;99.90;;;;;;5076213;28;19936;-58
2021/05/07 02:41:56;;;;;;;;;;;1.80;99.90;;;;;;5082302;28;19925;-58
2021/05/07 02:44:21;;;;;;;;;;;1.80;99.90;;;;;;5081812;28;19970;-58
2021/05/07 02:46:52;;;;;;;;;;;1.80;99.90;;;;;;5086362;28;19924;-59
2021/05/07 02:49:18;;;;;;;;;;;1.80;99.90;;;;;;5076938;28;19921;-59
2021/05/07 02:51:44;;;;;;;;;;;1.80;99.90;;;;;;5083494;28;20407;-59
2021/05/07 02:54:10;;;;;;;;;;;1.80;99.90;;;;;;5074977;28;19946;-59
2021/05/07 02:56:36;;;;;;;;;;;1.70;99.90;;;;;;5082541;28;19920;-58
2021/05/07 02:59:02;;;;;;;;;;;1.70;99.90;;;;;;5079917;28;19981;-59
2021/05/07 03:01:28;;;;;;;;;;;1.70;99.90;;;;;;5081387;28;19924;-58
2021/05/07 03:03:53;;;;;;;;;;;1.70;99.90;;;;;;5065291;28;20006;-58
2021/05/07 03:06:19;;;;;;;;;;;1.60;99.90;;;;;;5086502;28;19924;-58
2021/05/07 03:08:45;;;;;;;;;;;1.70;99.90;;;;;;5086568;28;19975;-57
2021/05/07 03:11:10;;;;;;;;;;;1.70;99.90;;;;;;5079475;28;20287;-59
2021/05/07 03:13:36;;;;;;;;;;;1.80;99.90;;;;;;5083554;28;19981;-58
2021/05/07 03:16:03;;;;;;;;;;;1.70;99.90;;;;;;5059125;28;79016;-58
2021/05/07 03:18:28;;;;;;;;;;;1.70;99.90;;;;;;5079062;28;20665;-58
2021/05/07 03:20:54;;;;;;;;;;;1.70;99.90;;;;;;5075366;28;19971;-59
2021/05/07 03:23:20;;;;;;;;;;;1.70;99.90;;;;;;5082213;28;20372;-58
2021/05/07 03:25:46;;;;;;;;;;;1.60;99.90;;;;;;5073264;28;19931;-58
2021/05/07 03:28:12;;;;;;;;;;;1.60;99.90;;;;;;5085054;28;19930;-58
2021/05/07 03:30:38;;;;;;;;;;;1.60;99.90;;;;;;5077016;28;19924;-58
2021/05/07 03:33:04;;;;;;;;;;;1.60;99.90;;;;;;5082584;28;20292;-58
2021/05/07 03:35:30;;;;;;;;;;;1.60;99.90;;;;;;5075883;28;20323;-58
2021/05/07 03:37:56;;;;;;;;;;;1.50;99.90;;;;;;5081009;28;19924;-59
2021/05/07 03:40:22;;;;;;;;;;;1.50;99.90;;;;;;5077762;28;20389;-59
2021/05/07 03:42:48;;;;;;;;;;;1.60;99.90;;;;;;5083286;28;19924;-59
2021/05/07 03:45:14;;;;;;;;;;;1.50;99.90;;;;;;5079631;28;19924;-59
2021/05/07 03:47:40;;;;;;;;;;;1.60;99.90;;;;;;5080170;28;19927;-59
2021/05/07 03:50:06;;;;;;;;;;;1.50;99.90;;;;;;5082856;28;20354;-59
2021/05/07 03:52:32;;;;;;;;;;;1.50;99.90;;;;;;5072190;28;20431;-59
2021/05/07 03:54:58;;;;;;;;;;;1.50;99.90;;;;;;5081708;28;19931;-59
2021/05/07 03:57:25;;;;;;;;;;;1.50;99.90;;;;;;5073720;28;19923;-59
2021/05/07 03:59:51;;;;;;;;;;;1.40;99.90;;;;;;5083039;28;19924;-59
2021/05/07 04:02:17;;;;;;;;;;;1.40;99.90;;;;;;5076766;28;20372;-59
2021/05/07 04:04:45;;;;;;;;;;;1.40;99.90;;;;;;5085629;28;20351;-59
2021/05/07 04:07:11;;;;;;;;;;;1.40;99.90;;;;;;5081215;28;20560;-59
2021/05/07 04:09:45;;;;;;;;;;;1.40;99.90;;;;;;5080431;28;19982;-59
2021/05/07 04:12:15;;;;;;;;;;;1.40;99.90;;;;;;5083707;28;19931;-59
2021/05/07 04:14:41;;;;;;;;;;;1.40;99.90;;;;;;5081976;28;19994;-58
2021/05/07 04:17:06;;;;;;;;;;;1.40;99.90;;;;;;5080315;28;19924;-61
2021/05/07 04:19:32;;;;;;;;;;;1.40;99.90;;;;;;5085539;28;20367;-58
2021/05/07 04:21:58;;;;;;;;;;;1.40;99.90;;;;;;5079221;28;19927;-58
2021/05/07 04:24:27;;;;;;;;;;;1.50;99.90;;;;;;5077790;28;20384;-58
2021/05/07 04:26:54;;;;;;;;;;;1.50;99.90;;;;;;5081478;28;19935;-58
2021/05/07 04:29:21;;;;;;;;;;;1.50;99.90;;;;;;5082668;28;20443;-59
2021/05/07 04:31:47;;;;;;;;;;;1.60;99.90;;;;;;5083351;28;19924;-59
2021/05/07 04:34:13;;;;;;;;;;;1.70;99.90;;;;;;5077526;28;19931;-59
2021/05/07 04:36:39;;;;;;;;;;;1.70;99.90;;;;;;5087537;28;19920;-59
2021/05/07 04:39:05;;;;;;;;;;;1.80;99.90;;;;;;5081898;28;19920;-59
2021/05/07 04:41:31;;;;;;;;;;;1.80;99.90;;;;;;5088782;28;20081;-58
2021/05/07 04:43:57;;;;;;;;;;;1.90;99.90;;;;;;5077304;28;19976;-58
2021/05/07 04:46:22;;;;;;;;;;;1.90;99.90;;;;;;5086393;28;19928;-58
2021/05/07 04:48:48;;;;;;;;;;;2.00;99.90;;;;;;5080783;28;19928;-58
2021/05/07 04:51:14;;;;;;;;;;;2.20;99.90;;;;;;5086432;28;19965;-59
2021/05/07 04:53:39;;;;;;;;;;;2.20;99.90;;;;;;5081267;28;19942;-59
2021/05/07 04:56:06;;;;;;;;;;;2.40;99.90;;;;;;5086392;28;19924;-59
2021/05/07 04:58:31;;;;;;;;;;;2.50;99.90;;;;;;5078906;28;20296;-58
2021/05/07 05:00:58;;;;;;;;;;;2.60;99.90;;;;;;5086257;28;19919;-59
2021/05/07 05:03:23;;;;;;;;;;;2.60;99.90;;;;;;5080167;28;19924;-58
2021/05/07 05:05:49;;;;;;;;;;;2.70;99.90;;;;;;5084159;28;20279;-58
2021/05/07 05:08:21;;;;;;;;;;;2.70;99.90;;;;;;5084267;28;19924;-59
2021/05/07 05:10:48;;;;;;;;;;;2.70;99.90;;;;;;5078876;28;19978;-58
2021/05/07 05:13:14;;;;;;;;;;;2.80;99.90;;;;;;5087427;28;20905;-59
2021/05/07 05:15:40;;;;;;;;;;;2.90;99.90;;;;;;5078999;28;20368;-59
2021/05/07 05:18:05;;;;;;;;;;;2.90;99.90;;;;;;5086643;28;19974;-59
2021/05/07 05:20:31;;;;;;;;;;;3.00;99.90;;;;;;5080275;28;19924;-59
2021/05/07 05:22:57;;;;;;;;;;;3.10;99.90;;;;;;5086377;28;19924;-59
2021/05/07 05:25:22;;;;;;;;;;;3.20;99.90;;;;;;5081681;28;19936;-59
2021/05/07 05:27:48;;;;;;;;;;;3.20;99.90;;;;;;5086170;28;20395;-59
2021/05/07 05:30:14;;;;;;;;;;;3.20;99.90;;;;;;5079416;28;19919;-58
2021/05/07 05:32:40;;;;;;;;;;;3.30;99.90;;;;;;5085337;28;19920;-59
2021/05/07 05:35:05;;;;;;;;;;;3.40;99.90;;;;;;5082640;28;19985;-59
2021/05/07 05:37:31;;;;;;;;;;;3.50;99.90;;;;;;5085099;28;20356;-58
2021/05/07 05:39:57;;;;;;;;;;;3.60;99.90;;;;;;5081092;28;20011;-59
2021/05/07 05:42:22;;;;;;;;;;;3.60;99.90;;;;;;5082137;28;19919;-59
2021/05/07 05:44:48;;;;;;;;;;;3.70;99.90;;;;;;5086434;28;20376;-59
2021/05/07 05:47:14;;;;;;;;;;;3.70;99.90;;;;;;5081171;28;20028;-58
2021/05/07 05:49:39;;;;;;;;;;;3.70;99.90;;;;;;5086791;28;20478;-59
2021/05/07 05:52:05;;;;;;;;;;;3.70;99.90;;;;;;5080542;28;19927;-59
2021/05/07 05:54:34;;;;;;;;;;;3.80;99.90;;;;;;5086415;28;20261;-59
2021/05/07 05:57:00;;;;;;;;;;;3.80;99.90;;;;;;5077519;28;20376;-59
2021/05/07 05:59:25;;;;;;;;;;;3.70;99.90;;;;;;5086010;28;19933;-59
2021/05/07 06:01:51;;;;;;;;;;;3.90;99.90;;;;;;5081739;28;19936;-59
2021/05/07 06:04:17;;;;;;;;;;;4.00;99.90;;;;;;5085172;28;19931;-59
2021/05/07 06:06:43;;;;;;;;;;;4.30;99.90;;;;;;5084418;28;20019;-59
2021/05/07 06:09:08;;;;;;;;;;;4.40;99.90;;;;;;5085101;28;19983;-59
2021/05/07 06:11:34;;;;;;;;;;;4.50;99.90;;;;;;5077007;28;20375;-59
2021/05/07 06:14:01;;;;;;;;;;;4.70;99.90;;;;;;5084445;28;20016;-59
2021/05/07 06:16:27;;;;;;;;;;;4.80;99.90;;;;;;5079076;28;20354;-59
2021/05/07 06:18:54;;;;;;;;;;;4.80;99.90;;;;;;5083256;28;19920;-59
2021/05/07 06:21:19;;;;;;;;;;;4.90;99.90;;;;;;5080269;28;19924;-58
2021/05/07 06:23:45;;;;;;;;;;;5.00;99.90;;;;;;5086090;28;19928;-59
2021/05/07 06:26:11;;;;;;;;;;;5.20;99.90;;;;;;5084217;28;19951;-59
2021/05/07 06:28:37;;;;;;;;;;;5.30;99.90;;;;;;5077037;28;19920;-59
2021/05/07 06:31:02;;;;;;;;;;;5.40;99.90;;;;;;5082528;28;20306;-59
2021/05/07 06:33:28;;;;;;;;;;;5.50;99.90;;;;;;5082103;28;19966;-59
2021/05/07 06:35:54;;;;;;;;;;;5.60;99.90;;;;;;5087090;28;19946;-59
2021/05/07 06:38:19;;;;;;;;;;;5.70;99.90;;;;;;5079802;28;20406;-59
2021/05/07 06:40:45;;;;;;;;;;;5.80;99.90;;;;;;5084839;28;19920;-59
2021/05/07 06:43:11;;;;;;;;;;;6.00;99.90;;;;;;5078916;28;20146;-59
2021/05/07 06:45:37;;;;;;;;;;;6.10;99.60;;;;;;5082095;28;19935;-59
2021/05/07 06:48:04;;;;;;;;;;;6.20;99.20;;;;;;5078943;28;19920;-59
2021/05/07 06:50:30;;;;;;;;;;;6.20;98.70;;;;;;5084427;28;20375;-59
2021/05/07 06:52:55;;;;;;;;;;;6.40;99.50;;;;;;5082328;28;22909;-60
2021/05/07 06:55:21;;;;;;;;;;;6.60;99.50;;;;;;5079086;28;19973;-59
2021/05/07 06:57:49;;;;;;;;;;;6.70;98.70;;;;;;5080789;28;19935;-60
2021/05/07 07:00:15;;;;;;;;;;;6.90;98.70;;;;;;5087746;28;20341;-59
2021/05/07 07:02:41;;;;;;;;;;;7.10;98.70;;;;;;5084530;28;20015;-60
2021/05/07 07:05:07;;;;;;;;;;;7.30;97.70;;;;;;5077649;28;19959;-60
2021/05/07 07:07:35;;;;;;;;;;;7.30;97.50;;;;;;5081524;28;20283;-60
2021/05/07 07:10:01;;;;;;;;;;;7.40;97.50;;;;;;5082178;28;19920;-60
2021/05/07 07:12:26;;;;;;;;;;;7.50;96.90;;;;;;5086068;28;19935;-60
2021/05/07 07:14:52;;;;;;;;;;;7.60;97.10;;;;;;5079901;28;19971;-60
2021/05/07 07:17:17;;;;;;;;;;;7.80;96.80;;;;;;5086248;28;20397;-60
2021/05/07 07:19:43;;;;;;;;;;;7.80;95.90;;;;;;5076716;28;19928;-60
2021/05/07 07:22:09;;;;;;;;;;;7.90;96.40;;;;;;5083521;28;19973;-60
2021/05/07 07:24:35;;;;;;;;;;;7.80;96.30;;;;;;5072941;28;20368;-60
2021/05/07 07:27:00;;;;;;;;;;;7.80;96.40;;;;;;5083693;28;19927;-60
2021/05/07 07:29:26;;;;;;;;;;;7.80;95.90;;;;;;5080271;28;20448;-60
2021/05/07 07:31:52;;;;;;;;;;;7.90;96.40;;;;;;5083053;28;19924;-60
2021/05/07 07:34:18;;;;;;;;;;;8.20;95.80;;;;;;5079782;28;19989;-59
2021/05/07 07:36:45;;;;;;;;;;;8.60;95.20;;;;;;5083770;28;19924;-60
2021/05/07 07:39:12;;;;;;;;;;;8.90;95.40;;;;;;5084722;28;20021;-60
2021/05/07 07:41:37;;;;;;;;;;;9.20;94.50;;;;;;5078460;28;20024;-60
2021/05/07 07:44:03;;;;;;;;;;;9.30;94.20;;;;;;5086856;28;19984;-60
2021/05/07 07:46:30;;;;;;;;;;;9.50;94.20;;;;;;5077706;28;19946;-60
2021/05/07 07:48:56;;;;;;;;;;;9.50;93.80;;;;;;5084283;28;19946;-59
2021/05/07 07:51:22;;;;;;;;;;;9.50;92.60;;;;;;5079506;28;20410;-60
2021/05/07 07:53:47;;;;;;;;;;;9.50;92.90;;;;;;5084127;28;19921;-60
2021/05/07 07:56:13;;;;;;;;;;;9.50;92.90;;;;;;5078679;28;20015;-60
2021/05/07 07:58:39;;;;;;;;;;;9.60;92.70;;;;;;5082517;28;20287;-60
2021/05/07 08:01:05;;;;;;;;;;;9.70;92.30;;;;;;5081441;28;20016;-60
2021/05/07 08:03:30;;;;;;;;;;;9.70;91.70;;;;;;5080396;28;19982;-60
2021/05/07 08:05:56;;;;;;;;;;;9.80;92.10;;;;;;5079592;28;19976;-60
2021/05/07 08:08:22;;;;;;;;;;;10.00;90.20;;;;;;5084750;28;19924;-60
2021/05/07 08:10:47;;;;;;;;;;;10.30;90.50;;;;;;5074748;28;19966;-60
2021/05/07 08:13:13;;;;;;;;;;;10.70;86.20;;;;;;5083630;28;19920;-60
2021/05/07 08:15:39;;;;;;;;;;;10.70;86.20;;;;;;5083191;28;19920;-61
2021/05/07 08:18:04;;;;;;;;;;;10.50;88.40;;;;;;5080785;28;20122;-61
2021/05/07 08:20:30;;;;;;;;;;;10.30;86.40;;;;;;5082432;28;20031;-61
2021/05/07 08:22:56;;;;;;;;;;;10.50;89.00;;;;;;5078203;28;20006;-61
2021/05/07 08:25:22;;;;;;;;;;;10.70;84.10;;;;;;5080481;28;19931;-61
2021/05/07 08:27:48;;;;;;;;;;;10.60;83.90;;;;;;5073747;28;20305;-61
2021/05/07 08:30:13;;;;;;;;;;;10.50;85.60;;;;;;5079895;28;19927;-61
2021/05/07 08:32:39;;;;;;;;;;;11.10;85.50;;;;;;5078070;28;20259;-61
2021/05/07 08:35:06;;;;;;;;;;;11.60;78.00;;;;;;5076040;28;20284;-61
2021/05/07 08:37:31;;;;;;;;;;;12.10;77.10;;;;;;5075415;28;20335;-61
2021/05/07 08:39:57;;;;;;;;;;;12.70;76.80;;;;;;5083070;28;19984;-61
2021/05/07 08:42:23;;;;;;;;;;;13.20;76.70;;;;;;5075375;28;19924;-62
2021/05/07 08:44:49;;;;;;;;;;;13.60;74.00;;;;;;5083271;28;19948;-61
2021/05/07 08:47:18;;;;;;;;;;;13.40;73.80;;;;;;5077393;28;19928;-62
2021/05/07 08:49:46;;;;;;;;;;;13.20;71.20;;;;;;5082591;28;20415;-61
2021/05/07 08:52:11;;;;;;;;;;;13.20;73.00;;;;;;5080152;28;20287;-61
2021/05/07 08:54:37;;;;;;;;;;;13.30;66.20;;;;;;5086408;28;19927;-61
2021/05/07 08:57:03;;;;;;;;;;;13.70;67.00;;;;;;5085599;28;20003;-61
2021/05/07 08:59:29;;;;;;;;;;;14.10;67.50;;;;;;5079639;28;19928;-61
2021/05/07 09:01:54;;;;;;;;;;;14.30;64.10;;;;;;5084009;28;19920;-61
2021/05/07 09:04:21;;;;;;;;;;;14.20;60.10;;;;;;5078939;28;20018;-61
2021/05/07 09:06:52;;;;;;;;;;;13.60;66.00;;;;;;5087291;28;20550;-60
2021/05/07 09:09:19;;;;;;;;;;;13.00;72.00;;;;;;5078093;28;19921;-60
2021/05/07 09:11:45;;;;;;;;;;;12.80;73.60;;;;;;5086127;28;20310;-62
2021/05/07 09:14:10;;;;;;;;;;;12.40;75.70;;;;;;5077124;28;19928;-60
2021/05/07 09:16:36;;;;;;;;;;;12.00;80.50;;;;;;5083698;28;20368;-60
2021/05/07 09:19:02;;;;;;;;;;;11.60;75.30;;;;;;5083602;28;19928;-60
2021/05/07 09:21:28;;;;;;;;;;;11.20;78.10;;;;;;5081309;28;20280;-60
2021/05/07 09:23:54;;;;;;;;;;;10.70;78.90;;;;;;5080262;28;19924;-59
2021/05/07 09:26:19;;;;;;;;;;;10.40;85.40;;;;;;5084094;28;20437;-60
2021/05/07 09:28:52;;;;;;;;;;;10.20;81.00;;;;;;5084406;28;20437;-62
2021/05/07 09:31:19;;;;;;;;;;;10.20;84.00;;;;;;5087120;28;19935;-62
2021/05/07 09:33:46;;;;;;;;;;;10.90;88.10;;;;;;5082830;28;19924;-61
2021/05/07 09:36:25;;;;;;;;;;;11.70;79.50;;;;;;5083689;28;20260;-62
2021/05/07 09:38:50;;;;;;;;;;;12.40;75.40;;;;;;5085236;28;19925;-62
2021/05/07 09:41:16;;;;;;;;;;;13.00;78.90;;;;;;5081419;28;19931;-62
2021/05/07 09:43:42;;;;;;;;;;;13.40;75.70;;;;;;5085787;28;19924;-62
2021/05/07 09:46:07;;;;;;;;;;;13.80;71.00;;;;;;5079646;28;19931;-63
2021/05/07 09:48:33;;;;;;;;;;;14.30;70.80;;;;;;5083519;28;19954;-63
2021/05/07 09:51:04;;;;;;;;;;;14.20;65.60;;;;;;5079080;28;19956;-63
2021/05/07 09:53:30;;;;;;;;;;;13.90;68.50;;;;;;5085385;28;19920;-63
2021/05/07 09:56:00;;;;;;;;;;;14.00;66.50;;;;;;5079006;28;19971;-63
2021/05/07 09:58:26;;;;;;;;;;;14.40;71.20;;;;;;5087152;28;19962;-63
2021/05/07 10:00:52;;;;;;;;;;;14.60;64.90;;;;;;5077335;28;20247;-63
2021/05/07 10:03:18;;;;;;;;;;;14.70;63.60;;;;;;5084234;28;19930;-63
2021/05/07 10:05:48;;;;;;;;;;;14.20;67.30;;;;;;5077627;28;19924;-63
2021/05/07 10:08:13;;;;;;;;;;;13.50;70.00;;;;;;5084987;28;20371;-63
2021/05/07 10:10:42;;;;;;;;;;;13.10;69.80;;;;;;5075515;28;20302;-63
2021/05/07 10:13:09;;;;;;;;;;;13.00;71.50;;;;;;5082599;28;19916;-63
2021/05/07 10:15:37;;;;;;;;;;;12.90;72.60;;;;;;5080588;28;20014;-64
2021/05/07 10:18:06;;;;;;;;;;;13.10;71.90;;;;;;5083314;28;20007;-64
2021/05/07 10:20:33;;;;;;;;;;;13.50;69.20;;;;;;5079307;28;20391;-65
2021/05/07 10:23:17;;;;;;;;;;;14.00;65.70;;;;;;5082146;28;20371;-64
2021/05/07 10:26:12;;;;;;;;;;;14.40;71.70;;;;;;5080426;28;19933;-64
2021/05/07 10:28:45;;;;;;;;;;;14.90;63.20;;;;;;5064394;28;19963;-64
2021/05/07 10:31:11;;;;;;;;;;;15.10;60.70;;;;;;5079735;28;19920;-64
2021/05/07 10:33:36;;;;;;;;;;;14.60;67.30;;;;;;5084566;28;19927;-64
2021/05/07 10:36:03;;;;;;;;;;;13.80;64.10;;;;;;5083906;28;19942;-63
2021/05/07 10:38:28;;;;;;;;;;;13.10;64.10;;;;;;5083248;28;19966;-64
2021/05/07 10:41:03;;;;;;;;;;;12.90;68.20;;;;;;5082274;28;20371;-64
2021/05/07 10:43:39;;;;;;;;;;;13.20;66.40;;;;;;5091775;28;19946;-64
2021/05/07 10:46:05;;;;;;;;;;;13.80;69.40;;;;;;5081665;28;19925;-64
2021/05/07 10:48:31;;;;;;;;;;;13.90;64.30;;;;;;5081522;28;19928;-64
2021/05/07 10:50:58;;;;;;;;;;;13.70;67.00;;;;;;5082112;28;19920;-63
2021/05/07 10:53:28;;;;;;;;;;;13.40;66.20;;;;;;5080483;28;20328;-63
2021/05/07 10:55:54;;;;;;;;;;;13.30;67.00;;;;;;5083291;28;20284;-64
2021/05/07 10:58:29;;;;;;;;;;;13.20;65.40;;;;;;5081856;28;19966;-64
2021/05/07 11:00:56;;;;;;;;;;;13.30;63.60;;;;;;5082981;28;19924;-64
2021/05/07 11:03:21;;;;;;;;;;;13.30;69.90;;;;;;5076961;28;19920;-65
2021/05/07 11:05:48;;;;;;;;;;;13.10;65.30;;;;;;5082912;28;19924;-64
2021/05/07 11:08:15;;;;;;;;;;;12.80;66.80;;;;;;5078955;28;20459;-65
2021/05/07 11:10:41;;;;;;;;;;;12.70;70.90;;;;;;5079675;28;19926;-65
2021/05/07 11:13:08;;;;;;;;;;;13.00;72.70;;;;;;5077660;28;19973;-65
2021/05/07 11:15:34;;;;;;;;;;;13.40;63.80;;;;;;5082093;28;19927;-63
2021/05/07 11:18:01;;;;;;;;;;;13.50;64.80;;;;;;5073967;28;20371;-63
2021/05/07 11:20:35;;;;;;;;;;;13.20;66.90;;;;;;5083352;28;19974;-63
2021/05/07 11:23:02;;;;;;;;;;;12.90;64.60;;;;;;5080387;28;20360;-63
2021/05/07 11:25:32;;;;;;;;;;;12.70;66.80;;;;;;5082121;28;20023;-63
2021/05/07 11:28:10;;;;;;;;;;;13.10;68.20;;;;;;5084877;28;20227;-63
2021/05/07 11:30:46;;;;;;;;;;;13.60;62.60;;;;;;5083465;28;19924;-63
2021/05/07 11:33:11;;;;;;;;;;;13.60;65.90;;;;;;5082140;28;19924;-63
2021/05/07 11:35:37;;;;;;;;;;;13.50;66.00;;;;;;5078968;28;19919;-63
2021/05/07 11:38:03;;;;;;;;;;;13.50;71.30;;;;;;5081492;28;19924;-63
2021/05/07 11:40:36;;;;;;;;;;;14.00;67.00;;;;;;5079953;28;20475;-64
2021/05/07 11:43:11;;;;;;;;;;;14.60;64.90;;;;;;5082283;28;19921;-64
2021/05/07 11:45:37;;;;;;;;;;;15.00;63.00;;;;;;5079826;28;19924;-63
2021/05/07 11:48:07;;;;;;;;;;;14.80;66.00;;;;;;5083631;28;19949;-64
2021/05/07 11:50:33;;;;;;;;;;;14.80;61.20;;;;;;5079885;28;19924;-63
2021/05/07 11:52:58;;;;;;;;;;;15.00;59.40;;;;;;5083803;28;19951;-63
2021/05/07 11:55:26;;;;;;;;;;;14.70;63.00;;;;;;5076154;28;20352;-63
2021/05/07 11:58:02;;;;;;;;;;;14.80;61.80;;;;;;5082880;28;19924;-63
2021/05/07 12:00:29;;;;;;;;;;;15.00;65.90;;;;;;5090954;28;19998;-63
2021/05/07 12:02:59;;;;;;;;;;;15.20;60.20;;;;;;5083937;28;19925;-63
2021/05/07 12:05:32;;;;;;;;;;;15.60;56.50;;;;;;5078771;28;20007;-63
2021/05/07 12:07:58;;;;;;;;;;;15.50;59.50;;;;;;5084032;28;19928;-63
2021/05/07 12:10:24;;;;;;;;;;;14.90;56.10;;;;;;5073508;28;19920;-63
2021/05/07 12:12:54;;;;;;;;;;;14.70;69.70;;;;;;5098727;28;19920;-63
2021/05/07 12:15:20;;;;;;;;;;;14.90;54.30;;;;;;5071547;28;19960;-63
2021/05/07 12:17:47;;;;;;;;;;;15.00;62.50;;;;;;5084265;28;19970;-63
2021/05/07 12:20:16;;;;;;;;;;;14.50;67.10;;;;;;5080541;28;20383;-63
2021/05/07 12:22:42;;;;;;;;;;;14.40;63.50;;;;;;5080742;28;19943;-63
2021/05/07 12:25:09;;;;;;;;;;;14.40;60.50;;;;;;5079743;28;20002;-63
2021/05/07 12:27:36;;;;;;;;;;;14.60;61.90;;;;;;5077893;28;19981;-63
2021/05/07 12:30:12;;;;;;;;;;;15.10;62.20;;;;;;5087321;28;19920;-63
2021/05/07 12:32:37;;;;;;;;;;;15.10;58.30;;;;;;5081316;28;19920;-63
2021/05/07 12:35:03;;;;;;;;;;;14.60;56.40;;;;;;5084955;28;20264;-63
2021/05/07 12:37:38;;;;;;;;;;;14.00;59.40;;;;;;5084466;28;20006;-64
2021/05/07 12:40:05;;;;;;;;;;;13.70;60.00;;;;;;5083915;28;19920;-63
2021/05/07 12:42:31;;;;;;;;;;;13.20;66.20;;;;;;5080460;28;19928;-63
2021/05/07 12:44:56;;;;;;;;;;;12.90;64.30;;;;;;5082390;28;19931;-63
2021/05/07 12:47:22;;;;;;;;;;;13.10;73.00;;;;;;5081668;28;20455;-64
2021/05/07 12:49:48;;;;;;;;;;;13.40;60.90;;;;;;5086819;28;20689;-64
2021/05/07 12:52:13;;;;;;;;;;;13.30;65.10;;;;;;5080912;28;19986;-64
2021/05/07 12:54:39;;;;;;;;;;;13.10;58.60;;;;;;5087401;28;20283;-64
2021/05/07 12:57:05;;;;;;;;;;;12.70;59.60;;;;;;5081445;28;20393;-64
2021/05/07 12:59:30;;;;;;;;;;;12.60;62.10;;;;;;5081711;28;20011;-64
2021/05/07 13:01:56;;;;;;;;;;;13.20;61.70;;;;;;5079925;28;19932;-65
2021/05/07 13:04:22;;;;;;;;;;;13.90;60.70;;;;;;5087517;28;20391;-65
2021/05/07 13:06:48;;;;;;;;;;;14.50;58.90;;;;;;5084702;28;20011;-65
2021/05/07 13:09:14;;;;;;;;;;;15.00;56.90;;;;;;5091707;28;20015;-65
2021/05/07 13:11:39;;;;;;;;;;;15.40;61.00;;;;;;5085370;28;20006;-65
2021/05/07 13:14:08;;;;;;;;;;;15.70;55.70;;;;;;5078529;28;19966;-65
2021/05/07 13:16:34;;;;;;;;;;;15.80;58.60;;;;;;5085704;28;19920;-65
2021/05/07 13:19:00;;;;;;;;;;;15.80;56.20;;;;;;5078515;28;20246;-65
2021/05/07 13:21:26;;;;;;;;;;;15.80;58.10;;;;;;5088517;28;19927;-65
2021/05/07 13:23:51;;;;;;;;;;;15.70;62.30;;;;;;5077781;28;20162;-65
2021/05/07 13:26:17;;;;;;;;;;;15.50;53.20;;;;;;5084419;28;19963;-65
2021/05/07 13:28:43;;;;;;;;;;;15.40;56.60;;;;;;5079030;28;19931;-65
2021/05/07 13:31:09;;;;;;;;;;;15.30;56.70;;;;;;5088523;28;19920;-65
2021/05/07 13:33:34;;;;;;;;;;;15.20;54.90;;;;;;5083232;28;20015;-65
2021/05/07 13:36:00;;;;;;;;;;;15.20;59.30;;;;;;5080044;28;82240;-62
2021/05/07 13:38:26;;;;;;;2.08;0.70;;;15.10;48.70;;;;;;5070606;28;75312;-68
2021/05/07 13:40:53;;;;;;;1.20;0.70;;;15.10;50.10;;;;;;5079860;28;20097;-69
2021/05/07 13:43:19;;;;;;;1.98;0.60;;;15.00;46.20;;;;;;5082612;28;20061;-68
2021/05/07 13:45:45;;;;;;;1.77;0.85;;;14.90;48.70;;;;;;5073456;28;20079;-68
2021/05/07 13:48:11;;;;;;;2.53;0.70;;;15.00;48.90;;;;;;5082720;28;20064;-68
2021/05/07 13:50:37;;;;;;;1.98;0.80;;;15.10;48.80;;;;;;5077564;28;20040;-72
2021/05/07 13:53:03;;;;;;;4.32;0.88;;;15.20;48.50;;;;;;5084473;28;20047;-66
2021/05/07 13:55:29;;;;;;;1.42;0.70;;;15.20;52.50;;;;;;5077870;28;20043;-67
2021/05/07 13:57:55;;;;;;;1.88;0.70;;;15.10;52.80;;;;;;5084197;28;20043;-67
2021/05/07 14:00:21;;;;;;;1.45;0.65;;;15.00;53.10;;;;;;5076697;28;20047;-67
2021/05/07 14:02:47;;;;;;;3.85;0.73;;;15.00;52.80;;;;;;5084850;28;20452;-66
2021/05/07 14:05:13;;;;;;;2.28;0.80;;;14.90;52.80;;;;;;5074279;28;20068;-67
2021/05/07 14:07:39;;;;;;;0.90;0.70;;;14.70;51.30;;;;;;5087543;28;20036;-66
2021/05/07 14:10:07;;;;;;;3.05;1.08;;;14.50;52.80;;;;;;5073737;28;20040;-67
2021/05/07 14:12:33;;;;;;;1.48;0.90;;;14.60;55.40;;;;;;5084732;28;20491;-68
2021/05/07 14:14:59;;;;;;;1.80;0.80;;;14.50;56.30;;;;;;5076495;28;20044;-65